Time;durP1;ratioP1;P1;durP2;ratioP2;P2;SDS_P1;SDS_P2;PMS_P1;PMS_P2;Temp;Humidity;BMP_temperature;BMP_pressure;BME280_temperature;BME280_humidity;BME280_pressure;Samples;Min_cycle;Max_cycle;Signal;HPM_P1;HPM_P2
2020/12/18 00:00:27;;;;;;;12.70;9.20;;;6.30;1.00;;;;;;5094043;28;20456;-75
2020/12/18 00:02:54;;;;;;;9.63;8.73;;;6.30;1.00;;;;;;5090095;28;20461;-75
2020/12/18 00:05:21;;;;;;;9.90;8.73;;;6.30;1.00;;;;;;5093101;28;20851;-79
2020/12/18 00:07:50;;;;;;;9.27;7.87;;;6.30;1.00;;;;;;5073208;28;20287;-75
2020/12/18 00:10:17;;;;;;;9.33;8.47;;;6.20;1.00;;;;;;5098412;28;20953;-77
2020/12/18 00:12:44;;;;;;;8.77;7.97;;;6.20;1.00;;;;;;5072883;28;20539;-76
2020/12/18 00:15:11;;;;;;;10.43;7.73;;;6.20;1.00;;;;;;5094673;28;20603;-75
2020/12/18 00:17:38;;;;;;;9.40;8.27;;;6.20;1.00;;;;;;5075287;28;20520;-76
2020/12/18 00:20:06;;;;;;;8.40;7.00;;;6.10;1.00;;;;;;5083302;28;20465;-80
2020/12/18 00:22:34;;;;;;;8.97;7.90;;;6.10;1.00;;;;;;5091799;28;20517;-80
2020/12/18 00:25:02;;;;;;;9.70;8.40;;;6.10;1.00;;;;;;5092010;28;20482;-75
2020/12/18 00:27:29;;;;;;;9.13;8.23;;;6.10;1.00;;;;;;5094603;28;20481;-75
2020/12/18 00:29:56;;;;;;;9.90;8.90;;;6.00;1.00;;;;;;5089254;28;20701;-76
2020/12/18 00:32:23;;;;;;;10.48;7.80;;;6.10;1.00;;;;;;5093863;28;20458;-79
2020/12/18 00:34:50;;;;;;;13.40;9.33;;;6.00;1.00;;;;;;5074884;28;20249;-75
2020/12/18 00:37:20;;;;;;;10.83;9.73;;;6.00;1.00;;;;;;5079133;28;20466;-76
2020/12/18 00:39:47;;;;;;;11.43;9.37;;;6.00;1.00;;;;;;5079498;28;20461;-75
2020/12/18 00:42:15;;;;;;;12.70;10.00;;;6.00;1.00;;;;;;5082803;28;20528;-74
2020/12/18 00:44:42;;;;;;;13.63;9.23;;;6.00;1.00;;;;;;5100453;28;20485;-75
2020/12/18 00:47:09;;;;;;;11.33;9.27;;;6.00;1.00;;;;;;5075031;28;21159;-76
2020/12/18 00:49:36;;;;;;;9.30;8.23;;;6.00;1.00;;;;;;5088060;28;20463;-75
2020/12/18 00:52:03;;;;;;;10.30;8.30;;;5.90;1.00;;;;;;5093502;28;20477;-78
2020/12/18 00:54:30;;;;;;;10.57;8.27;;;5.90;1.00;;;;;;5094568;28;20584;-77
2020/12/18 00:56:57;;;;;;;10.02;8.55;;;5.90;1.00;;;;;;5077789;28;20456;-78
2020/12/18 00:59:25;;;;;;;12.77;9.13;;;5.90;1.00;;;;;;5070240;28;20277;-75
2020/12/18 01:01:57;;;;;;;10.63;9.10;;;5.80;1.00;;;;;;5069855;28;20224;-75
2020/12/18 01:04:24;;;;;;;12.30;9.40;;;5.80;99.90;;;;;;5091492;28;20484;-75
2020/12/18 01:06:53;;;;;;;13.13;8.80;;;5.80;99.90;;;;;;5093833;28;20465;-75
2020/12/18 01:09:21;;;;;;;11.90;10.17;;;5.70;99.90;;;;;;5092989;28;20541;-76
2020/12/18 01:11:48;;;;;;;11.20;8.53;;;5.70;1.00;;;;;;5063581;28;20987;-75
2020/12/18 01:14:16;;;;;;;11.10;8.67;;;5.70;1.00;;;;;;5097513;28;20457;-74
2020/12/18 01:16:50;;;;;;;11.90;8.17;;;5.70;1.00;;;;;;5084105;28;20462;-74
2020/12/18 01:19:17;;;;;;;10.40;8.32;;;5.70;1.00;;;;;;5082081;28;20486;-75
2020/12/18 01:21:45;;;;;;;13.82;8.40;;;5.70;1.00;;;;;;5094512;28;20208;-77
2020/12/18 01:24:12;;;;;;;11.23;8.85;;;5.70;1.00;;;;;;5067569;28;20284;-76
2020/12/18 01:26:39;;;;;;;12.17;9.40;;;5.70;1.00;;;;;;5070030;28;20199;-77
2020/12/18 01:29:06;;;;;;;13.95;8.93;;;5.70;1.00;;;;;;5073152;28;20479;-75
2020/12/18 01:31:34;;;;;;;16.20;11.88;;;5.70;1.00;;;;;;5092026;28;20219;-74
2020/12/18 01:34:02;;;;;;;15.47;10.03;;;5.70;1.00;;;;;;5095217;28;20240;-76
2020/12/18 01:36:29;;;;;;;15.95;11.23;;;5.70;1.00;;;;;;5094851;28;20470;-79
2020/12/18 01:38:56;;;;;;;12.83;10.07;;;5.70;1.00;;;;;;5075413;28;20239;-74
2020/12/18 01:41:23;;;;;;;17.15;9.18;;;5.80;1.00;;;;;;5086913;28;21015;-79
2020/12/18 01:43:50;;;;;;;16.80;9.60;;;5.70;1.00;;;;;;5080121;28;20230;-74
2020/12/18 01:46:20;;;;;;;9.50;7.90;;;5.70;1.00;;;;;;5090734;28;20201;-75
2020/12/18 01:48:48;;;;;;;9.33;7.90;;;5.70;1.00;;;;;;5078175;28;20486;-76
2020/12/18 01:51:16;;;;;;;10.03;7.83;;;5.80;1.00;;;;;;5086379;28;20466;-75
2020/12/18 01:53:44;;;;;;;17.13;8.60;;;5.70;1.00;;;;;;5089952;28;20457;-75
2020/12/18 01:56:12;;;;;;;11.20;7.80;;;5.80;1.00;;;;;;5088326;28;20992;-80
2020/12/18 01:58:40;;;;;;;7.90;7.30;;;5.70;1.00;;;;;;5081835;28;20493;-75
2020/12/18 02:01:09;;;;;;;9.43;7.27;;;5.70;1.00;;;;;;5086329;28;20463;-75
2020/12/18 02:03:37;;;;;;;8.93;7.00;;;5.70;1.00;;;;;;5090548;28;20470;-74
2020/12/18 02:06:06;;;;;;;7.90;7.10;;;5.70;1.00;;;;;;5091547;28;20472;-77
2020/12/18 02:08:34;;;;;;;7.93;7.13;;;5.70;1.00;;;;;;5088251;28;20468;-75
2020/12/18 02:11:01;;;;;;;8.17;6.50;;;5.70;1.00;;;;;;5096249;28;20556;-75
2020/12/18 02:13:29;;;;;;;8.23;6.70;;;5.60;1.00;;;;;;5089043;28;20469;-77
2020/12/18 02:15:56;;;;;;;8.23;6.37;;;5.70;1.00;;;;;;5071826;28;20454;-77
2020/12/18 02:18:24;;;;;;;8.77;7.70;;;5.70;1.00;;;;;;5074749;28;20993;-75
2020/12/18 02:20:51;;;;;;;8.30;6.63;;;5.70;1.00;;;;;;5096225;28;20473;-76
2020/12/18 02:23:18;;;;;;;7.83;6.30;;;5.70;1.00;;;;;;5069887;28;20530;-77
2020/12/18 02:25:57;;;;;;;8.07;6.20;;;5.70;1.00;;;;;;5070974;28;21211;-77
2020/12/18 02:28:24;;;;;;;8.20;7.00;;;5.80;1.00;;;;;;5090449;28;20489;-75
2020/12/18 02:30:52;;;;;;;7.25;6.60;;;5.80;1.00;;;;;;5085818;28;20465;-75
2020/12/18 02:33:19;;;;;;;6.60;6.00;;;5.80;1.00;;;;;;5071688;28;20216;-75
2020/12/18 02:35:46;;;;;;;8.03;7.10;;;5.70;1.00;;;;;;5086234;28;20459;-75
2020/12/18 02:38:13;;;;;;;8.60;7.70;;;5.80;1.00;;;;;;5071185;28;20484;-75
2020/12/18 02:40:40;;;;;;;11.00;8.60;;;5.80;1.00;;;;;;5082140;28;21095;-75
2020/12/18 02:43:08;;;;;;;9.30;7.83;;;5.60;1.00;;;;;;5087353;28;21103;-75
2020/12/18 02:45:35;;;;;;;8.00;7.20;;;5.50;1.00;;;;;;5096637;28;20488;-75
2020/12/18 02:48:02;;;;;;;8.07;7.27;;;5.40;1.00;;;;;;5089400;28;20505;-75
2020/12/18 02:50:29;;;;;;;7.57;6.90;;;5.50;1.00;;;;;;5082978;28;20458;-74
2020/12/18 02:52:57;;;;;;;9.30;8.07;;;5.50;1.00;;;;;;5090020;28;20957;-75
2020/12/18 02:55:24;;;;;;;9.07;8.20;;;5.60;5.30;;;;;;5088615;28;20576;-75
2020/12/18 02:57:51;;;;;;;7.70;6.90;;;5.70;11.40;;;;;;5088930;28;20497;-74
2020/12/18 03:00:19;;;;;;;9.93;8.40;;;5.80;17.90;;;;;;5078877;28;20470;-75
2020/12/18 03:02:46;;;;;;;8.80;8.00;;;5.90;29.80;;;;;;5085977;28;20507;-74
2020/12/18 03:05:14;;;;;;;9.00;8.10;;;6.00;25.20;;;;;;5067465;28;21072;-73
2020/12/18 03:07:41;;;;;;;7.47;6.77;;;6.10;8.60;;;;;;5091238;28;21253;-74
2020/12/18 03:10:08;;;;;;;9.33;6.33;;;6.10;1.00;;;;;;5088701;28;20466;-73
2020/12/18 03:12:35;;;;;;;6.90;6.20;;;6.10;1.00;;;;;;5084135;28;20477;-74
2020/12/18 03:15:02;;;;;;;7.70;7.00;;;6.10;1.00;;;;;;5083550;28;20854;-73
2020/12/18 03:17:30;;;;;;;7.47;6.67;;;6.10;1.00;;;;;;5088005;28;20838;-74
2020/12/18 03:19:58;;;;;;;8.27;6.73;;;6.10;1.00;;;;;;5069311;28;20523;-73
2020/12/18 03:22:40;;;;;;;7.67;6.87;;;6.20;1.00;;;;;;5084687;28;21086;-73
2020/12/18 03:25:08;;;;;;;6.87;6.20;;;6.20;1.00;;;;;;5070331;28;20900;-74
2020/12/18 03:27:35;;;;;;;6.77;6.17;;;6.20;1.00;;;;;;5081216;28;20523;-74
2020/12/18 03:30:03;;;;;;;7.47;6.10;;;6.20;1.00;;;;;;5075533;28;21108;-73
2020/12/18 03:32:31;;;;;;;6.90;6.30;;;6.30;1.00;;;;;;5080724;28;20474;-78
2020/12/18 03:34:58;;;;;;;6.80;6.10;;;6.30;1.00;;;;;;5081995;28;20466;-74
2020/12/18 03:37:25;;;;;;;6.90;5.83;;;6.30;1.00;;;;;;5075978;28;21220;-74
2020/12/18 03:39:52;;;;;;;7.00;5.90;;;6.30;1.00;;;;;;5072508;28;21322;-75
2020/12/18 03:42:19;;;;;;;7.03;6.43;;;6.30;1.00;;;;;;5082267;28;20536;-74
2020/12/18 03:44:46;;;;;;;6.70;6.10;;;6.30;1.00;;;;;;5090606;28;20492;-74
2020/12/18 03:47:13;;;;;;;8.10;6.30;;;6.30;1.00;;;;;;5080149;28;20475;-74
2020/12/18 03:49:41;;;;;;;8.57;7.70;;;6.30;1.00;;;;;;5084586;28;20474;-75
2020/12/18 03:52:08;;;;;;;7.03;6.33;;;6.30;1.00;;;;;;5084668;28;20997;-77
2020/12/18 03:54:35;;;;;;;8.10;7.20;;;6.30;1.00;;;;;;5092659;28;20461;-74
2020/12/18 03:57:02;;;;;;;7.90;7.03;;;6.40;1.00;;;;;;5099136;28;20470;-76
2020/12/18 03:59:29;;;;;;;8.70;7.47;;;6.40;1.00;;;;;;5100755;28;20991;-76
2020/12/18 04:01:56;;;;;;;7.87;7.07;;;6.40;1.00;;;;;;5084369;28;20466;-76
2020/12/18 04:04:24;;;;;;;8.40;7.60;;;6.50;1.00;;;;;;5088707;28;20486;-76
2020/12/18 04:06:51;;;;;;;9.30;6.80;;;6.50;1.00;;;;;;5085513;28;20539;-76
2020/12/18 04:09:19;;;;;;;6.73;6.23;;;6.50;1.00;;;;;;5089612;28;20528;-75
2020/12/18 04:11:49;;;;;;;9.10;7.70;;;6.50;1.00;;;;;;5086199;28;20842;-77
2020/12/18 04:14:16;;;;;;;10.30;7.10;;;6.50;1.00;;;;;;5057755;28;20833;-76
2020/12/18 04:16:44;;;;;;;8.07;7.00;;;6.50;1.00;;;;;;5076044;28;20522;-75
2020/12/18 04:19:11;;;;;;;8.17;7.37;;;6.50;1.00;;;;;;5081467;28;20490;-75
2020/12/18 04:21:38;;;;;;;8.30;7.07;;;6.50;1.00;;;;;;5065738;28;20552;-74
2020/12/18 04:24:06;;;;;;;8.10;7.30;;;6.50;1.00;;;;;;5094273;28;20482;-74
2020/12/18 04:26:33;;;;;;;8.73;7.70;;;6.60;1.00;;;;;;5087857;28;20478;-76
2020/12/18 04:29:00;;;;;;;8.00;7.20;;;6.70;1.00;;;;;;5067498;28;20494;-74
2020/12/18 04:31:28;;;;;;;10.90;7.43;;;6.70;1.00;;;;;;5061465;28;20468;-75
2020/12/18 04:33:55;;;;;;;9.00;7.90;;;6.70;1.00;;;;;;5082410;28;20496;-74
2020/12/18 04:36:22;;;;;;;8.03;7.30;;;6.70;1.00;;;;;;5067214;28;20462;-76
2020/12/18 04:38:49;;;;;;;8.50;7.40;;;6.60;1.00;;;;;;5082644;28;21044;-75
2020/12/18 04:41:18;;;;;;;8.50;7.50;;;6.50;1.00;;;;;;5068792;28;20464;-77
2020/12/18 04:43:46;;;;;;;9.00;7.57;;;6.40;1.00;;;;;;5088837;28;20474;-75
2020/12/18 04:46:17;;;;;;;8.70;7.90;;;6.50;1.00;;;;;;5067966;28;20560;-74
2020/12/18 04:48:47;;;;;;;8.37;7.50;;;6.50;99.90;;;;;;5060869;28;20497;-74
2020/12/18 04:51:18;;;;;;;7.73;6.90;;;6.30;99.90;;;;;;5062876;28;21071;-75
2020/12/18 04:53:48;;;;;;;8.80;7.20;;;6.30;1.00;;;;;;5083746;28;20561;-74
2020/12/18 04:56:21;;;;;;;10.30;7.33;;;6.30;1.00;;;;;;5100111;28;20473;-74
2020/12/18 04:58:53;;;;;;;8.47;7.50;;;6.20;1.00;;;;;;5085638;28;20963;-73
2020/12/18 05:01:22;;;;;;;10.73;8.50;;;6.10;1.00;;;;;;5090772;28;21026;-74
2020/12/18 05:03:50;;;;;;;9.40;7.57;;;6.00;1.00;;;;;;5091804;28;20479;-76
2020/12/18 05:06:17;;;;;;;8.40;7.50;;;6.10;1.00;;;;;;5082961;28;20535;-76
2020/12/18 05:08:45;;;;;;;9.90;8.50;;;6.20;1.00;;;;;;5087536;28;20489;-75
2020/12/18 05:11:21;;;;;;;8.77;7.87;;;6.20;1.00;;;;;;5084454;28;20473;-74
2020/12/18 05:13:51;;;;;;;8.30;7.20;;;6.10;1.00;;;;;;5068317;28;20594;-76
2020/12/18 05:16:19;;;;;;;7.97;7.17;;;6.10;1.00;;;;;;5084147;28;20448;-74
2020/12/18 05:18:46;;;;;;;8.00;6.53;;;6.20;4.60;;;;;;5059265;28;21106;-74
2020/12/18 05:21:14;;;;;;;9.40;7.43;;;6.30;24.30;;;;;;5054961;28;21012;-77
2020/12/18 05:23:58;;;;;;;9.70;8.17;;;6.40;38.60;;;;;;5069880;28;20568;-76
2020/12/18 05:26:27;;;;;;;9.07;8.20;;;6.60;34.70;;;;;;5083871;28;20464;-73
2020/12/18 05:29:04;;;;;;;8.90;7.73;;;6.50;1.00;;;;;;5068038;28;20483;-74
2020/12/18 05:31:32;;;;;;;9.20;8.10;;;6.50;1.00;;;;;;5090750;28;20552;-76
2020/12/18 05:34:02;;;;;;;10.20;6.80;;;6.50;1.00;;;;;;5074937;28;20537;-80
2020/12/18 05:36:29;;;;;;;8.07;7.30;;;6.50;1.00;;;;;;5088884;28;20479;-77
2020/12/18 05:38:57;;;;;;;10.33;8.10;;;6.50;1.00;;;;;;5090351;28;21013;-75
2020/12/18 05:41:25;;;;;;;8.13;7.20;;;6.50;1.00;;;;;;5078058;28;20876;-76
2020/12/18 05:43:53;;;;;;;8.67;7.70;;;6.50;1.00;;;;;;5094230;28;20532;-77
2020/12/18 05:46:23;;;;;;;8.63;7.10;;;6.60;1.00;;;;;;5078125;28;20490;-76
2020/12/18 05:48:56;;;;;;;7.73;7.03;;;6.60;1.00;;;;;;5086340;28;20498;-76
2020/12/18 05:51:32;;;;;;;11.10;7.43;;;6.50;1.00;;;;;;5075747;28;20479;-76
2020/12/18 05:54:16;;;;;;;7.23;6.53;;;6.50;1.00;;;;;;5084252;28;20509;-76
2020/12/18 05:56:46;;;;;;;7.83;7.07;;;6.60;1.00;;;;;;5090810;28;20471;-77
2020/12/18 05:59:14;;;;;;;8.30;7.50;;;6.60;1.00;;;;;;5099061;28;20489;-75
2020/12/18 06:01:44;;;;;;;9.07;8.10;;;6.70;1.00;;;;;;5101965;28;20468;-74
2020/12/18 06:04:16;;;;;;;7.57;6.77;;;6.70;1.00;;;;;;5064958;28;20470;-77
2020/12/18 06:06:49;;;;;;;8.57;7.50;;;6.70;1.00;;;;;;5068926;28;20580;-77
2020/12/18 06:09:18;;;;;;;8.80;8.00;;;6.70;1.00;;;;;;5083637;28;20504;-79
2020/12/18 06:11:46;;;;;;;8.00;7.20;;;6.70;1.00;;;;;;5083919;28;20476;-77
2020/12/18 06:14:16;;;;;;;7.90;7.23;;;6.70;1.00;;;;;;5067536;28;20471;-74
2020/12/18 06:16:46;;;;;;;7.00;6.40;;;6.80;1.00;;;;;;5085980;28;20845;-76
2020/12/18 06:19:15;;;;;;;7.10;6.50;;;6.80;1.00;;;;;;5065462;28;20479;-75
2020/12/18 06:21:51;;;;;;;7.20;6.63;;;6.80;1.00;;;;;;5067750;28;20478;-80
2020/12/18 06:24:39;;;;;;;9.37;7.20;;;6.80;1.00;;;;;;5084131;28;20488;-78
2020/12/18 06:27:08;;;;;;;8.83;7.30;;;6.80;1.00;;;;;;5093811;28;20471;-74
2020/12/18 06:29:35;;;;;;;7.33;6.63;;;6.80;1.00;;;;;;5071034;28;20475;-77
2020/12/18 06:32:24;;;;;;;8.40;7.60;;;6.70;1.00;;;;;;5091392;28;20539;-75
2020/12/18 06:34:52;;;;;;;7.97;7.17;;;6.70;1.00;;;;;;5074296;28;20472;-78
2020/12/18 06:37:27;;;;;;;8.70;7.93;;;6.70;1.00;;;;;;5078489;28;20470;-78
2020/12/18 06:39:54;;;;;;;8.20;7.40;;;6.70;1.00;;;;;;5079340;28;20477;-77
2020/12/18 06:42:22;;;;;;;7.00;6.37;;;6.80;1.00;;;;;;5084244;28;20481;-80
2020/12/18 06:44:51;;;;;;;8.20;7.40;;;6.80;1.00;;;;;;5064766;28;20490;-78
2020/12/18 06:47:21;;;;;;;9.00;8.20;;;6.80;1.00;;;;;;5086797;28;20480;-79
2020/12/18 06:50:09;;;;;;;9.97;7.63;;;6.80;1.00;;;;;;5088562;28;20487;-74
2020/12/18 06:52:44;;;;;;;8.80;7.63;;;6.80;1.00;;;;;;5084623;28;20471;-75
2020/12/18 06:55:12;;;;;;;7.57;6.87;;;6.80;1.00;;;;;;5086934;28;20507;-79
2020/12/18 06:57:40;;;;;;;8.77;7.30;;;6.80;1.00;;;;;;5077994;28;21185;-78
2020/12/18 07:00:26;;;;;;;8.37;7.10;;;6.80;1.00;;;;;;5095130;28;20475;-76
2020/12/18 07:02:53;;;;;;;7.23;6.53;;;6.80;1.00;;;;;;5062971;28;20498;-78
2020/12/18 07:05:33;;;;;;;7.40;6.80;;;6.80;1.00;;;;;;5091706;28;20540;-77
2020/12/18 07:08:02;;;;;;;8.13;6.97;;;6.80;1.00;;;;;;5082186;28;20613;-78
2020/12/18 07:10:31;;;;;;;8.50;7.03;;;6.80;1.00;;;;;;5086070;28;20463;-76
2020/12/18 07:12:59;;;;;;;8.33;7.50;;;6.80;1.00;;;;;;5080856;28;20480;-76
2020/12/18 07:15:28;;;;;;;11.93;7.97;;;6.90;1.00;;;;;;5079279;28;20468;-78
2020/12/18 07:17:56;;;;;;;10.67;9.60;;;6.90;1.00;;;;;;5066945;28;20563;-74
2020/12/18 07:20:27;;;;;;;10.67;9.13;;;6.90;1.00;;;;;;5075249;28;20484;-74
2020/12/18 07:22:55;;;;;;;10.00;9.00;;;7.00;1.00;;;;;;5051037;28;20472;-75
2020/12/18 07:25:22;;;;;;;10.50;8.00;;;7.10;1.00;;;;;;5071403;28;20931;-75
2020/12/18 07:27:50;;;;;;;8.80;7.90;;;7.10;1.00;;;;;;5068183;28;21064;-75
2020/12/18 07:30:17;;;;;;;9.07;8.27;;;7.10;1.00;;;;;;5070972;28;20533;-78
2020/12/18 07:32:44;;;;;;;8.63;7.73;;;7.10;1.00;;;;;;5053357;28;20483;-74
2020/12/18 07:35:13;;;;;;;9.43;8.43;;;7.00;1.00;;;;;;5073203;28;20476;-79
2020/12/18 07:37:40;;;;;;;8.93;8.03;;;7.10;1.00;;;;;;5076904;28;20526;-76
2020/12/18 07:40:08;;;;;;;10.17;9.07;;;7.10;1.00;;;;;;5074779;28;20470;-81
2020/12/18 07:42:40;;;;;;;8.93;8.00;;;7.10;1.00;;;;;;5072912;28;20553;-78
2020/12/18 07:45:09;;;;;;;13.33;10.87;;;7.20;1.00;;;;;;5051690;28;20966;-77
2020/12/18 07:47:38;;;;;;;11.80;10.60;;;7.30;1.00;;;;;;5072633;28;20550;-77
2020/12/18 07:50:07;;;;;;;12.80;9.73;;;7.20;1.00;;;;;;5063178;28;20514;-75
2020/12/18 07:52:35;;;;;;;11.70;9.70;;;7.30;1.00;;;;;;5076521;28;21056;-77
2020/12/18 07:55:03;;;;;;;10.73;9.30;;;7.30;1.00;;;;;;5075760;28;20460;-74
2020/12/18 07:57:32;;;;;;;9.43;8.47;;;7.30;1.00;;;;;;5077679;28;20498;-75
2020/12/18 08:00:08;;;;;;;10.40;9.30;;;7.30;1.00;;;;;;5057141;28;20508;-78
2020/12/18 08:02:35;;;;;;;11.13;9.07;;;7.30;1.00;;;;;;5075730;28;20219;-77
2020/12/18 08:05:03;;;;;;;10.83;9.27;;;7.40;1.00;;;;;;5054356;28;20490;-79
2020/12/18 08:07:31;;;;;;;10.23;9.20;;;7.40;1.00;;;;;;5081487;28;20506;-76
2020/12/18 08:10:00;;;;;;;12.17;8.57;;;7.40;1.00;;;;;;5076630;28;20848;-76
2020/12/18 08:12:29;;;;;;;10.47;8.47;;;7.40;1.00;;;;;;5083640;28;20481;-75
2020/12/18 08:15:10;;;;;;;9.60;7.70;;;7.10;1.00;;;;;;5085079;28;20472;-75
2020/12/18 08:17:38;;;;;;;9.37;7.70;;;7.10;1.00;;;;;;5081979;28;20511;-76
2020/12/18 08:20:06;;;;;;;8.30;7.50;;;7.10;1.00;;;;;;5081269;28;20482;-77
2020/12/18 08:22:37;;;;;;;11.23;7.33;;;7.20;1.00;;;;;;5082312;28;20460;-77
2020/12/18 08:25:07;;;;;;;11.67;7.20;;;7.40;1.00;;;;;;5083508;28;20501;-73
2020/12/18 08:27:39;;;;;;;8.83;8.00;;;7.40;1.00;;;;;;5087253;28;20491;-73
2020/12/18 08:30:07;;;;;;;11.97;7.23;;;7.50;1.00;;;;;;5071594;28;20479;-74
2020/12/18 08:32:38;;;;;;;8.30;7.37;;;7.60;1.00;;;;;;5068758;28;20468;-73
2020/12/18 08:35:06;;;;;;;9.33;8.30;;;7.50;1.00;;;;;;5063179;28;20467;-75
2020/12/18 08:37:34;;;;;;;8.70;7.87;;;7.60;1.00;;;;;;5083180;28;20490;-74
2020/12/18 08:40:02;;;;;;;12.53;8.53;;;7.70;1.00;;;;;;5086553;28;20557;-76
2020/12/18 08:42:30;;;;;;;10.30;8.23;;;7.70;1.00;;;;;;5070533;28;20485;-75
2020/12/18 08:45:00;;;;;;;10.80;9.03;;;7.70;1.00;;;;;;5071162;28;20560;-74
2020/12/18 08:47:30;;;;;;;8.33;7.53;;;7.70;1.00;;;;;;5080736;28;20527;-73
2020/12/18 08:49:59;;;;;;;9.53;8.63;;;7.70;1.00;;;;;;5082919;28;20482;-79
2020/12/18 08:52:28;;;;;;;9.27;8.13;;;7.80;1.00;;;;;;5083132;28;20469;-76
2020/12/18 08:55:06;;;;;;;9.00;7.77;;;7.90;1.00;;;;;;5087779;28;20534;-74
2020/12/18 08:57:36;;;;;;;7.27;6.57;;;8.50;1.00;;;;;;5088294;28;20493;-75
2020/12/18 09:00:11;;;;;;;10.40;6.73;;;9.10;1.00;;;;;;5083039;28;21119;-75
2020/12/18 09:02:41;;;;;;;7.10;6.40;;;9.30;99.90;;;;;;5086320;28;20539;-75
2020/12/18 09:05:18;;;;;;;7.47;6.77;;;9.40;99.90;;;;;;5080580;28;20485;-75
2020/12/18 09:07:51;;;;;;;7.37;6.67;;;9.30;1.00;;;;;;5066729;28;20553;-76
2020/12/18 09:10:39;;;;;;;9.13;7.10;;;8.80;99.90;;;;;;5083974;28;20867;-78
2020/12/18 09:13:13;;;;;;;9.60;7.13;;;8.90;99.90;;;;;;5075735;28;20506;-74
2020/12/18 09:15:41;;;;;;;6.93;6.23;;;9.10;99.90;;;;;;5080951;28;20463;-76
2020/12/18 09:18:09;;;;;;;6.73;6.13;;;9.20;1.00;;;;;;5079579;28;20486;-78
2020/12/18 09:20:38;;;;;;;7.83;6.80;;;9.40;99.90;;;;;;5058342;28;20478;-77
2020/12/18 09:23:07;;;;;;;8.63;6.97;;;9.50;1.00;;;;;;5080526;28;21336;-77
2020/12/18 09:25:41;;;;;;;7.07;6.37;;;9.30;99.90;;;;;;5077529;28;20500;-75
2020/12/18 09:28:14;;;;;;;9.07;7.13;;;9.20;1.00;;;;;;5080726;28;20528;-75
2020/12/18 09:30:47;;;;;;;7.53;6.83;;;9.20;99.90;;;;;;5065861;28;20562;-78
2020/12/18 09:33:25;;;;;;;8.60;6.67;;;9.10;1.00;;;;;;5089002;28;20478;-75
2020/12/18 09:35:55;;;;;;;8.30;7.30;;;8.90;99.90;;;;;;5077755;28;20793;-74
2020/12/18 09:38:24;;;;;;;8.57;7.78;;;9.00;99.90;;;;;;5073679;28;20534;-75
2020/12/18 09:40:51;;;;;;;7.20;6.50;;;9.20;99.90;;;;;;5094218;28;20288;-75
2020/12/18 09:43:19;;;;;;;7.63;6.73;;;9.20;99.90;;;;;;5089384;28;20988;-75
2020/12/18 09:45:46;;;;;;;12.33;7.40;;;9.30;99.90;;;;;;5072404;28;20563;-75
2020/12/18 09:48:14;;;;;;;7.77;7.07;;;9.50;1.00;;;;;;5087929;28;20502;-74
2020/12/18 09:50:41;;;;;;;7.47;6.80;;;9.80;99.90;;;;;;5096076;28;20462;-76
2020/12/18 09:53:09;;;;;;;8.40;7.13;;;10.00;1.00;;;;;;5090316;28;20468;-74
2020/12/18 09:55:36;;;;;;;7.80;7.00;;;10.10;99.90;;;;;;5090731;28;20466;-76
2020/12/18 09:58:04;;;;;;;7.40;6.70;;;10.30;1.00;;;;;;5070968;28;21088;-76
2020/12/18 10:00:32;;;;;;;9.27;7.27;;;10.50;96.00;;;;;;5088222;28;20468;-75
2020/12/18 10:03:00;;;;;;;8.10;7.30;;;10.80;99.90;;;;;;5069461;28;20570;-77
2020/12/18 10:05:27;;;;;;;7.70;6.80;;;11.40;1.00;;;;;;5089800;28;21101;-76
2020/12/18 10:07:54;;;;;;;7.27;6.17;;;11.80;1.00;;;;;;5088722;28;20496;-75
2020/12/18 10:10:23;;;;;;;5.73;5.23;;;12.20;99.90;;;;;;5088836;28;21002;-76
2020/12/18 10:12:54;;;;;;;5.47;4.97;;;12.60;99.90;;;;;;5087881;28;20475;-77
2020/12/18 10:15:21;;;;;;;6.40;5.30;;;13.10;99.90;;;;;;5091778;28;20470;-75
2020/12/18 10:17:49;;;;;;;6.13;5.53;;;13.40;1.00;;;;;;5083740;28;21135;-77
2020/12/18 10:20:16;;;;;;;7.13;6.50;;;13.80;1.00;;;;;;5087066;28;20479;-75
2020/12/18 10:22:43;;;;;;;6.20;5.60;;;14.30;1.00;;;;;;5090555;28;20470;-75
2020/12/18 10:25:10;;;;;;;5.33;4.83;;;14.30;1.00;;;;;;5088302;28;20544;-76
2020/12/18 10:27:39;;;;;;;5.40;4.90;;;14.30;1.00;;;;;;5088671;28;20529;-75
2020/12/18 10:30:07;;;;;;;4.97;4.53;;;14.10;1.00;;;;;;5083390;28;20510;-79
2020/12/18 10:32:35;;;;;;;4.80;4.40;;;14.30;1.00;;;;;;5086761;28;20533;-76
2020/12/18 10:35:03;;;;;;;5.60;5.10;;;14.30;1.00;;;;;;5062130;28;20537;-76
2020/12/18 10:37:30;;;;;;;4.70;4.30;;;14.40;1.00;;;;;;5088524;28;20567;-72
2020/12/18 10:39:58;;;;;;;4.13;3.73;;;14.30;1.00;;;;;;5067706;28;20470;-76
2020/12/18 10:42:25;;;;;;;10.10;6.70;;;14.30;1.00;;;;;;5087729;28;20511;-76
2020/12/18 10:44:53;;;;;;;4.50;4.20;;;14.60;1.00;;;;;;5088540;28;20466;-76
2020/12/18 10:47:20;;;;;;;4.23;3.80;;;14.90;99.90;;;;;;5083301;28;20816;-75
2020/12/18 10:49:47;;;;;;;4.80;4.40;;;15.10;99.90;;;;;;5083002;28;20506;-76
2020/12/18 10:52:15;;;;;;;5.80;3.90;;;14.70;99.90;;;;;;5086550;28;20464;-76
2020/12/18 10:54:42;;;;;;;4.13;3.77;;;14.60;99.90;;;;;;5088345;28;20484;-77
2020/12/18 10:57:10;;;;;;;3.70;3.17;;;14.80;99.90;;;;;;5083082;28;20448;-77
2020/12/18 10:59:37;;;;;;;3.97;3.67;;;14.90;99.90;;;;;;5069039;28;20459;-79
2020/12/18 11:02:05;;;;;;;6.03;3.70;;;14.90;99.90;;;;;;5088920;28;20461;-73
2020/12/18 11:04:32;;;;;;;4.10;3.60;;;14.80;99.90;;;;;;5087755;28;20509;-77
2020/12/18 11:06:59;;;;;;;3.93;3.63;;;15.00;99.90;;;;;;5084421;28;21064;-75
2020/12/18 11:09:27;;;;;;;5.00;4.60;;;15.60;99.90;;;;;;5083009;28;20486;-76
2020/12/18 11:11:57;;;;;;;4.07;3.67;;;16.00;99.90;;;;;;5064892;28;20969;-77
2020/12/18 11:14:25;;;;;;;5.43;3.77;;;15.80;99.90;;;;;;5069868;28;20459;-77
2020/12/18 11:16:54;;;;;;;3.87;3.57;;;15.90;99.90;;;;;;5085567;28;20463;-76
2020/12/18 11:19:23;;;;;;;4.57;3.20;;;16.00;99.90;;;;;;5089266;28;20466;-80
2020/12/18 11:21:51;;;;;;;3.63;3.33;;;16.40;99.90;;;;;;5081496;28;20452;-78
2020/12/18 11:24:18;;;;;;;3.08;2.88;;;16.80;99.90;;;;;;5088261;28;20444;-77
2020/12/18 11:26:51;;;;;;;3.83;3.53;;;16.70;99.90;;;;;;5071992;28;20486;-75
2020/12/18 11:29:18;;;;;;;4.23;3.90;;;17.10;99.90;;;;;;5082159;28;20483;-77
2020/12/18 11:31:48;;;;;;;4.60;4.20;;;16.80;99.90;;;;;;5079436;28;20461;-77
2020/12/18 11:34:18;;;;;;;4.60;4.20;;;16.40;99.90;;;;;;5085007;28;21213;-75
2020/12/18 11:36:47;;;;;;;5.10;4.70;;;16.20;99.90;;;;;;5088109;28;20454;-78
2020/12/18 11:39:14;;;;;;;5.30;4.80;;;16.30;99.90;;;;;;5087809;28;20488;-77
2020/12/18 11:41:41;;;;;;;5.40;4.90;;;16.60;99.90;;;;;;5088029;28;20469;-75
2020/12/18 11:44:08;;;;;;;5.50;4.77;;;16.20;99.90;;;;;;5071144;28;20522;-77
2020/12/18 11:46:35;;;;;;;5.40;5.00;;;16.00;99.90;;;;;;5067432;28;20892;-80
2020/12/18 11:49:03;;;;;;;4.50;4.20;;;15.80;99.90;;;;;;5091474;28;20223;-75
2020/12/18 11:51:30;;;;;;;4.03;3.73;;;15.80;99.90;;;;;;5067259;28;20458;-78
2020/12/18 11:53:58;;;;;;;5.03;4.53;;;15.90;99.90;;;;;;5059039;28;20469;-77
2020/12/18 11:56:26;;;;;;;4.70;4.37;;;16.10;99.90;;;;;;5074699;28;20458;-76
2020/12/18 11:58:53;;;;;;;6.00;5.50;;;16.50;99.90;;;;;;5092754;28;20461;-77
2020/12/18 12:01:23;;;;;;;5.53;5.03;;;16.80;99.90;;;;;;5092170;28;21020;-78
2020/12/18 12:03:51;;;;;;;4.77;4.37;;;16.60;99.90;;;;;;5094952;28;20953;-77
2020/12/18 12:06:18;;;;;;;4.30;4.00;;;16.20;99.90;;;;;;5078833;28;20501;-78
2020/12/18 12:08:46;;;;;;;4.90;4.40;;;15.90;99.90;;;;;;5078036;28;20805;-77
2020/12/18 12:11:15;;;;;;;6.40;5.80;;;15.40;99.90;;;;;;5096481;28;20477;-77
2020/12/18 12:13:43;;;;;;;4.80;4.47;;;15.40;99.90;;;;;;5074395;28;20458;-76
2020/12/18 12:16:13;;;;;;;4.80;4.40;;;16.10;99.90;;;;;;5103299;28;20566;-77
2020/12/18 12:18:41;;;;;;;4.23;3.70;;;16.50;99.90;;;;;;5094029;28;20488;-76
2020/12/18 12:21:09;;;;;;;4.60;4.20;;;16.50;99.90;;;;;;5095504;28;20521;-79
2020/12/18 12:23:36;;;;;;;4.13;3.73;;;16.10;99.90;;;;;;5094795;28;20458;-77
2020/12/18 12:26:03;;;;;;;3.30;3.10;;;15.80;99.90;;;;;;5088173;28;21067;-77
2020/12/18 12:28:31;;;;;;;4.93;4.10;;;15.90;99.90;;;;;;5085044;28;20481;-78
2020/12/18 12:30:58;;;;;;;4.40;4.00;;;15.90;99.90;;;;;;5095133;28;20458;-79
2020/12/18 12:33:26;;;;;;;3.90;3.60;;;16.30;99.90;;;;;;5077423;28;20456;-77
2020/12/18 12:35:53;;;;;;;3.30;3.00;;;16.70;99.90;;;;;;5107387;28;20505;-80
2020/12/18 12:38:20;;;;;;;4.63;3.20;;;17.00;99.90;;;;;;5072188;28;20485;-78
2020/12/18 12:40:51;;;;;;;3.83;3.53;;;16.90;99.90;;;;;;5091920;28;20462;-79
2020/12/18 12:43:18;;;;;;;4.20;3.40;;;16.90;99.90;;;;;;5067646;28;20449;-77
2020/12/18 12:45:46;;;;;;;3.90;3.33;;;16.80;99.90;;;;;;5096000;28;20496;-80
2020/12/18 12:48:13;;;;;;;4.00;3.13;;;16.60;99.90;;;;;;5074341;28;20487;-78
2020/12/18 12:50:48;;;;;;;3.00;2.77;;;16.50;99.90;;;;;;5077616;28;20480;-78
2020/12/18 12:53:15;;;;;;;3.63;3.33;;;16.50;99.90;;;;;;5095358;28;20452;-78
2020/12/18 12:55:46;;;;;;;3.53;3.23;;;16.60;99.90;;;;;;5096417;28;20517;-77
2020/12/18 12:58:14;;;;;;;2.83;2.63;;;16.70;99.90;;;;;;5092129;28;20591;-78
2020/12/18 13:00:41;;;;;;;2.80;2.60;;;16.90;99.90;;;;;;5091918;28;20448;-76
2020/12/18 13:03:09;;;;;;;2.97;2.70;;;16.90;99.90;;;;;;5090902;28;20508;-78
2020/12/18 13:05:37;;;;;;;4.10;3.33;;;16.90;99.90;;;;;;5091716;28;20461;-77
2020/12/18 13:08:04;;;;;;;3.30;3.00;;;16.80;99.90;;;;;;5086740;28;20479;-79